sensor_id;sensor_type;location;lat;lon;timestamp;P1;durP1;ratioP1;P2;durP2;ratioP2
70806;SDS011;58882;52.170;5.386;2023-05-16T00:01:30;9.75;;;1.40;;
70806;SDS011;58882;52.170;5.386;2023-05-16T00:04:05;14.77;;;2.03;;
70806;SDS011;58882;52.170;5.386;2023-05-16T00:06:58;11.35;;;1.63;;
70806;SDS011;58882;52.170;5.386;2023-05-16T00:09:32;10.10;;;1.60;;
70806;SDS011;58882;52.170;5.386;2023-05-16T00:15:00;11.38;;;1.52;;
70806;SDS011;58882;52.170;5.386;2023-05-16T00:17:54;11.50;;;1.98;;
70806;SDS011;58882;52.170;5.386;2023-05-16T00:20:35;11.05;;;1.52;;
70806;SDS011;58882;52.170;5.386;2023-05-16T00:23:22;13.80;;;1.77;;
70806;SDS011;58882;52.170;5.386;2023-05-16T00:28:49;9.75;;;1.42;;
70806;SDS011;58882;52.170;5.386;2023-05-16T00:31:23;9.15;;;1.48;;
70806;SDS011;58882;52.170;5.386;2023-05-16T00:36:51;11.45;;;1.52;;
70806;SDS011;58882;52.170;5.386;2023-05-16T00:39:44;11.13;;;1.73;;
70806;SDS011;58882;52.170;5.386;2023-05-16T00:45:12;12.77;;;1.50;;
70806;SDS011;58882;52.170;5.386;2023-05-16T00:47:54;9.02;;;1.50;;
70806;SDS011;58882;52.170;5.386;2023-05-16T00:50:41;11.30;;;1.73;;
70806;SDS011;58882;52.170;5.386;2023-05-16T00:53:35;10.98;;;1.88;;
70806;SDS011;58882;52.170;5.386;2023-05-16T00:56:17;10.77;;;1.63;;
70806;SDS011;58882;52.170;5.386;2023-05-16T00:59:03;11.07;;;1.50;;
70806;SDS011;58882;52.170;5.386;2023-05-16T01:04:31;10.95;;;1.40;;
70806;SDS011;58882;52.170;5.386;2023-05-16T01:09:58;8.15;;;1.52;;
70806;SDS011;58882;52.170;5.386;2023-05-16T01:13:14;9.48;;;1.60;;
70806;SDS011;58882;52.170;5.386;2023-05-16T01:19:19;14.75;;;1.60;;
70806;SDS011;58882;52.170;5.386;2023-05-16T01:22:19;10.10;;;1.70;;
70806;SDS011;58882;52.170;5.386;2023-05-16T01:28:22;11.40;;;1.77;;
70806;SDS011;58882;52.170;5.386;2023-05-16T01:31:17;10.23;;;1.80;;
70806;SDS011;58882;52.170;5.386;2023-05-16T01:33:51;10.27;;;1.42;;
70806;SDS011;58882;52.170;5.386;2023-05-16T01:39:37;9.98;;;1.90;;
70806;SDS011;58882;52.170;5.386;2023-05-16T01:42:38;11.77;;;1.65;;
70806;SDS011;58882;52.170;5.386;2023-05-16T01:45:25;10.75;;;1.50;;
70806;SDS011;58882;52.170;5.386;2023-05-16T01:48:17;9.32;;;1.88;;
70806;SDS011;58882;52.170;5.386;2023-05-16T01:50:55;12.32;;;1.50;;
70806;SDS011;58882;52.170;5.386;2023-05-16T01:53:49;11.15;;;1.42;;
70806;SDS011;58882;52.170;5.386;2023-05-16T01:59:24;7.55;;;1.35;;
70806;SDS011;58882;52.170;5.386;2023-05-16T02:01:59;8.45;;;1.50;;
70806;SDS011;58882;52.170;5.386;2023-05-16T02:07:26;9.15;;;1.58;;
70806;SDS011;58882;52.170;5.386;2023-05-16T02:12:53;11.45;;;1.65;;
70806;SDS011;58882;52.170;5.386;2023-05-16T02:18:20;9.85;;;1.50;;
70806;SDS011;58882;52.170;5.386;2023-05-16T02:23:54;10.32;;;1.63;;
70806;SDS011;58882;52.170;5.386;2023-05-16T02:26:41;7.43;;;1.38;;
70806;SDS011;58882;52.170;5.386;2023-05-16T02:29:14;10.60;;;1.95;;
70806;SDS011;58882;52.170;5.386;2023-05-16T02:32:07;10.15;;;1.70;;
70806;SDS011;58882;52.170;5.386;2023-05-16T02:34:41;9.88;;;1.80;;
70806;SDS011;58882;52.170;5.386;2023-05-16T02:37:35;8.73;;;1.45;;
70806;SDS011;58882;52.170;5.386;2023-05-16T02:40:15;8.43;;;1.40;;
70806;SDS011;58882;52.170;5.386;2023-05-16T02:43:01;9.05;;;1.67;;
70806;SDS011;58882;52.170;5.386;2023-05-16T02:48:35;11.32;;;1.42;;
70806;SDS011;58882;52.170;5.386;2023-05-16T02:54:17;13.35;;;2.20;;
70806;SDS011;58882;52.170;5.386;2023-05-16T02:56:58;9.02;;;2.28;;
70806;SDS011;58882;52.170;5.386;2023-05-16T02:59:44;11.77;;;1.98;;
70806;SDS011;58882;52.170;5.386;2023-05-16T03:05:18;12.00;;;1.83;;
70806;SDS011;58882;52.170;5.386;2023-05-16T03:07:52;10.05;;;1.75;;
70806;SDS011;58882;52.170;5.386;2023-05-16T03:13:26;14.77;;;1.70;;
70806;SDS011;58882;52.170;5.386;2023-05-16T03:16:14;12.90;;;2.15;;
70806;SDS011;58882;52.170;5.386;2023-05-16T03:18:54;11.40;;;1.45;;
70806;SDS011;58882;52.170;5.386;2023-05-16T03:21:41;11.32;;;1.77;;
70806;SDS011;58882;52.170;5.386;2023-05-16T03:27:08;6.72;;;1.20;;
70806;SDS011;58882;52.170;5.386;2023-05-16T03:29:43;12.73;;;1.90;;
70806;SDS011;58882;52.170;5.386;2023-05-16T03:32:37;9.77;;;1.90;;
70806;SDS011;58882;52.170;5.386;2023-05-16T03:38:04;9.02;;;1.60;;
70806;SDS011;58882;52.170;5.386;2023-05-16T03:40:37;13.43;;;1.60;;
70806;SDS011;58882;52.170;5.386;2023-05-16T03:43:31;11.75;;;1.70;;
70806;SDS011;58882;52.170;5.386;2023-05-16T03:46:05;12.27;;;1.75;;
70806;SDS011;58882;52.170;5.386;2023-05-16T03:51:45;10.63;;;1.65;;
70806;SDS011;58882;52.170;5.386;2023-05-16T03:54:39;9.55;;;1.30;;
70806;SDS011;58882;52.170;5.386;2023-05-16T03:57:13;10.73;;;1.25;;
70806;SDS011;58882;52.170;5.386;2023-05-16T04:02:47;7.90;;;1.58;;
70806;SDS011;58882;52.170;5.386;2023-05-16T04:08:14;10.25;;;1.52;;
70806;SDS011;58882;52.170;5.386;2023-05-16T04:11:07;10.82;;;1.80;;
70806;SDS011;58882;52.170;5.386;2023-05-16T04:16:41;9.77;;;1.73;;
70806;SDS011;58882;52.170;5.386;2023-05-16T04:19:29;12.63;;;1.70;;
70806;SDS011;58882;52.170;5.386;2023-05-16T04:22:09;12.05;;;1.52;;
70806;SDS011;58882;52.170;5.386;2023-05-16T04:24:55;11.30;;;1.60;;
70806;SDS011;58882;52.170;5.386;2023-05-16T04:30:30;11.25;;;1.80;;
70806;SDS011;58882;52.170;5.386;2023-05-16T04:33:03;8.23;;;1.50;;
70806;SDS011;58882;52.170;5.386;2023-05-16T04:38:30;11.35;;;1.67;;
70806;SDS011;58882;52.170;5.386;2023-05-16T04:43:57;10.10;;;1.58;;
70806;SDS011;58882;52.170;5.386;2023-05-16T04:49:25;13.68;;;2.30;;
70806;SDS011;58882;52.170;5.386;2023-05-16T04:52:19;12.52;;;2.08;;
70806;SDS011;58882;52.170;5.386;2023-05-16T04:54:53;8.27;;;1.50;;
70806;SDS011;58882;52.170;5.386;2023-05-16T05:00:20;7.47;;;1.45;;
70806;SDS011;58882;52.170;5.386;2023-05-16T05:05:54;6.10;;;1.80;;
70806;SDS011;58882;52.170;5.386;2023-05-16T05:08:40;9.98;;;1.45;;
70806;SDS011;58882;52.170;5.386;2023-05-16T05:14:07;11.05;;;1.67;;
70806;SDS011;58882;52.170;5.386;2023-05-16T05:16:48;8.85;;;1.40;;
70806;SDS011;58882;52.170;5.386;2023-05-16T05:19:34;9.45;;;1.58;;
70806;SDS011;58882;52.170;5.386;2023-05-16T05:25:02;8.98;;;1.40;;
70806;SDS011;58882;52.170;5.386;2023-05-16T05:27:43;6.82;;;1.52;;
70806;SDS011;58882;52.170;5.386;2023-05-16T05:30:37;10.68;;;1.42;;
70806;SDS011;58882;52.170;5.386;2023-05-16T05:36:07;9.18;;;1.33;;
70806;SDS011;58882;52.170;5.386;2023-05-16T05:38:40;6.43;;;1.33;;
70806;SDS011;58882;52.170;5.386;2023-05-16T05:44:14;4.35;;;1.10;;
70806;SDS011;58882;52.170;5.386;2023-05-16T05:49:41;6.45;;;1.30;;
70806;SDS011;58882;52.170;5.386;2023-05-16T05:55:08;7.45;;;1.50;;
70806;SDS011;58882;52.170;5.386;2023-05-16T06:00:39;8.02;;;1.10;;
70806;SDS011;58882;52.170;5.386;2023-05-16T06:06:06;5.75;;;1.02;;
70806;SDS011;58882;52.170;5.386;2023-05-16T06:09:01;4.50;;;1.08;;
70806;SDS011;58882;52.170;5.386;2023-05-16T06:11:34;7.85;;;1.00;;
70806;SDS011;58882;52.170;5.386;2023-05-16T06:17:08;6.88;;;1.35;;
70806;SDS011;58882;52.170;5.386;2023-05-16T06:19:54;7.05;;;1.40;;
70806;SDS011;58882;52.170;5.386;2023-05-16T06:22:28;5.72;;;1.13;;
70806;SDS011;58882;52.170;5.386;2023-05-16T06:27:55;4.82;;;1.05;;
70806;SDS011;58882;52.170;5.386;2023-05-16T06:33:29;5.15;;;1.05;;
70806;SDS011;58882;52.170;5.386;2023-05-16T06:36:15;2.95;;;0.82;;
70806;SDS011;58882;52.170;5.386;2023-05-16T06:41:43;5.07;;;1.10;;
70806;SDS011;58882;52.170;5.386;2023-05-16T06:44:16;14.00;;;1.27;;
70806;SDS011;58882;52.170;5.386;2023-05-16T06:49:43;6.13;;;1.20;;
70806;SDS011;58882;52.170;5.386;2023-05-16T06:52:36;7.43;;;1.10;;
70806;SDS011;58882;52.170;5.386;2023-05-16T06:55:10;6.50;;;1.15;;
70806;SDS011;58882;52.170;5.386;2023-05-16T06:58:03;5.15;;;1.10;;
70806;SDS011;58882;52.170;5.386;2023-05-16T07:00:38;6.53;;;1.00;;
70806;SDS011;58882;52.170;5.386;2023-05-16T07:03:31;5.93;;;1.25;;
70806;SDS011;58882;52.170;5.386;2023-05-16T07:08:59;8.90;;;1.10;;
70806;SDS011;58882;52.170;5.386;2023-05-16T07:11:32;6.25;;;1.00;;
70806;SDS011;58882;52.170;5.386;2023-05-16T07:14:26;5.05;;;1.20;;
70806;SDS011;58882;52.170;5.386;2023-05-16T07:16:59;7.20;;;1.10;;
70806;SDS011;58882;52.170;5.386;2023-05-16T07:19:53;8.00;;;1.30;;
70806;SDS011;58882;52.170;5.386;2023-05-16T07:22:26;6.57;;;1.20;;
70806;SDS011;58882;52.170;5.386;2023-05-16T07:25:19;6.13;;;0.93;;
70806;SDS011;58882;52.170;5.386;2023-05-16T07:28:00;6.20;;;0.90;;
70806;SDS011;58882;52.170;5.386;2023-05-16T07:30:46;5.80;;;0.98;;
70806;SDS011;58882;52.170;5.386;2023-05-16T07:33:20;6.15;;;1.23;;
70806;SDS011;58882;52.170;5.386;2023-05-16T07:36:14;6.55;;;1.15;;
70806;SDS011;58882;52.170;5.386;2023-05-16T07:38:54;6.90;;;1.27;;
70806;SDS011;58882;52.170;5.386;2023-05-16T07:41:41;7.43;;;1.27;;
70806;SDS011;58882;52.170;5.386;2023-05-16T07:44:21;8.55;;;1.27;;
70806;SDS011;58882;52.170;5.386;2023-05-16T07:47:08;6.47;;;1.15;;
70806;SDS011;58882;52.170;5.386;2023-05-16T07:49:55;8.18;;;1.40;;
70806;SDS011;58882;52.170;5.386;2023-05-16T07:52:49;5.28;;;0.95;;
70806;SDS011;58882;52.170;5.386;2023-05-16T07:55:29;3.05;;;0.88;;
70806;SDS011;58882;52.170;5.386;2023-05-16T07:58:16;5.15;;;1.20;;
70806;SDS011;58882;52.170;5.386;2023-05-16T08:00:56;10.73;;;1.27;;
70806;SDS011;58882;52.170;5.386;2023-05-16T08:03:43;4.53;;;1.08;;
70806;SDS011;58882;52.170;5.386;2023-05-16T08:06:23;8.07;;;1.10;;
70806;SDS011;58882;52.170;5.386;2023-05-16T08:09:17;4.53;;;1.05;;
70806;SDS011;58882;52.170;5.386;2023-05-16T08:11:51;6.47;;;1.23;;
70806;SDS011;58882;52.170;5.386;2023-05-16T08:14:49;6.07;;;1.00;;
70806;SDS011;58882;52.170;5.386;2023-05-16T08:17:29;6.32;;;0.90;;
70806;SDS011;58882;52.170;5.386;2023-05-16T08:20:24;4.75;;;1.02;;
70806;SDS011;58882;52.170;5.386;2023-05-16T08:22:58;6.35;;;1.10;;
70806;SDS011;58882;52.170;5.386;2023-05-16T08:25:52;4.97;;;1.10;;
70806;SDS011;58882;52.170;5.386;2023-05-16T08:28:26;3.20;;;0.90;;
70806;SDS011;58882;52.170;5.386;2023-05-16T08:31:20;5.13;;;0.95;;
70806;SDS011;58882;52.170;5.386;2023-05-16T08:33:54;4.97;;;0.90;;
70806;SDS011;58882;52.170;5.386;2023-05-16T08:36:48;4.20;;;1.27;;
70806;SDS011;58882;52.170;5.386;2023-05-16T08:39:28;5.38;;;0.98;;
70806;SDS011;58882;52.170;5.386;2023-05-16T08:42:16;4.72;;;1.10;;
70806;SDS011;58882;52.170;5.386;2023-05-16T08:44:56;6.05;;;1.58;;
70806;SDS011;58882;52.170;5.386;2023-05-16T08:47:44;4.47;;;1.00;;
70806;SDS011;58882;52.170;5.386;2023-05-16T08:50:28;5.72;;;1.25;;
70806;SDS011;58882;52.170;5.386;2023-05-16T08:53:19;4.75;;;1.13;;
70806;SDS011;58882;52.170;5.386;2023-05-16T08:56:01;4.93;;;0.90;;
70806;SDS011;58882;52.170;5.386;2023-05-16T08:58:49;5.93;;;0.90;;
70806;SDS011;58882;52.170;5.386;2023-05-16T09:01:33;3.58;;;1.05;;
70806;SDS011;58882;52.170;5.386;2023-05-16T09:04:27;4.28;;;1.00;;
70806;SDS011;58882;52.170;5.386;2023-05-16T09:07:01;4.57;;;0.90;;
70806;SDS011;58882;52.170;5.386;2023-05-16T09:09:55;4.88;;;1.05;;
70806;SDS011;58882;52.170;5.386;2023-05-16T09:12:35;5.18;;;1.05;;
70806;SDS011;58882;52.170;5.386;2023-05-16T09:15:23;5.10;;;1.10;;
70806;SDS011;58882;52.170;5.386;2023-05-16T09:18:11;5.07;;;1.00;;
70806;SDS011;58882;52.170;5.386;2023-05-16T09:21:05;4.40;;;1.10;;
70806;SDS011;58882;52.170;5.386;2023-05-16T09:23:47;2.95;;;1.02;;
70806;SDS011;58882;52.170;5.386;2023-05-16T09:26:42;3.72;;;0.90;;
70806;SDS011;58882;52.170;5.386;2023-05-16T09:29:17;5.97;;;1.00;;
70806;SDS011;58882;52.170;5.386;2023-05-16T09:32:14;5.50;;;1.08;;
70806;SDS011;58882;52.170;5.386;2023-05-16T09:34:56;3.65;;;0.90;;
70806;SDS011;58882;52.170;5.386;2023-05-16T09:37:47;5.47;;;0.90;;
70806;SDS011;58882;52.170;5.386;2023-05-16T09:40:29;3.90;;;0.82;;
70806;SDS011;58882;52.170;5.386;2023-05-16T09:43:16;4.38;;;1.00;;
70806;SDS011;58882;52.170;5.386;2023-05-16T09:45:58;4.75;;;1.00;;
70806;SDS011;58882;52.170;5.386;2023-05-16T09:48:45;5.35;;;1.10;;
70806;SDS011;58882;52.170;5.386;2023-05-16T09:51:33;3.67;;;0.70;;
70806;SDS011;58882;52.170;5.386;2023-05-16T09:54:29;3.05;;;0.80;;
70806;SDS011;58882;52.170;5.386;2023-05-16T09:57:11;5.18;;;0.88;;
70806;SDS011;58882;52.170;5.386;2023-05-16T09:59:58;4.00;;;0.95;;
70806;SDS011;58882;52.170;5.386;2023-05-16T10:02:34;5.43;;;1.05;;
70806;SDS011;58882;52.170;5.386;2023-05-16T10:05:30;4.03;;;0.88;;
70806;SDS011;58882;52.170;5.386;2023-05-16T10:08:04;4.07;;;0.93;;
70806;SDS011;58882;52.170;5.386;2023-05-16T10:10:59;4.20;;;0.88;;
70806;SDS011;58882;52.170;5.386;2023-05-16T10:13:33;4.57;;;0.90;;
70806;SDS011;58882;52.170;5.386;2023-05-16T10:16:28;4.47;;;1.13;;
70806;SDS011;58882;52.170;5.386;2023-05-16T10:19:09;3.92;;;1.00;;
70806;SDS011;58882;52.170;5.386;2023-05-16T10:21:57;4.80;;;0.93;;
70806;SDS011;58882;52.170;5.386;2023-05-16T10:27:57;5.53;;;0.80;;
70806;SDS011;58882;52.170;5.386;2023-05-16T10:30:39;4.03;;;0.88;;
70806;SDS011;58882;52.170;5.386;2023-05-16T10:33:27;4.28;;;1.20;;
70806;SDS011;58882;52.170;5.386;2023-05-16T10:36:10;5.63;;;0.90;;
70806;SDS011;58882;52.170;5.386;2023-05-16T10:39:05;3.90;;;0.93;;
70806;SDS011;58882;52.170;5.386;2023-05-16T10:41:39;4.60;;;1.05;;
70806;SDS011;58882;52.170;5.386;2023-05-16T10:44:33;3.58;;;0.77;;
70806;SDS011;58882;52.170;5.386;2023-05-16T10:47:20;6.00;;;0.88;;
70806;SDS011;58882;52.170;5.386;2023-05-16T10:50:07;5.03;;;1.02;;
70806;SDS011;58882;52.170;5.386;2023-05-16T10:53:20;2.88;;;0.90;;
70806;SDS011;58882;52.170;5.386;2023-05-16T10:58:52;5.70;;;0.90;;
70806;SDS011;58882;52.170;5.386;2023-05-16T11:01:34;6.22;;;0.90;;
70806;SDS011;58882;52.170;5.386;2023-05-16T11:04:21;4.15;;;0.95;;
70806;SDS011;58882;52.170;5.386;2023-05-16T11:07:01;6.63;;;0.80;;
70806;SDS011;58882;52.170;5.386;2023-05-16T11:09:52;10.10;;;0.90;;
70806;SDS011;58882;52.170;5.386;2023-05-16T11:12:54;4.03;;;0.90;;
70806;SDS011;58882;52.170;5.386;2023-05-16T11:19:07;5.55;;;0.90;;
70806;SDS011;58882;52.170;5.386;2023-05-16T11:22:09;2.58;;;0.80;;
70806;SDS011;58882;52.170;5.386;2023-05-16T11:27:51;5.40;;;1.08;;
70806;SDS011;58882;52.170;5.386;2023-05-16T11:30:31;5.32;;;0.88;;
70806;SDS011;58882;52.170;5.386;2023-05-16T11:33:25;4.05;;;1.08;;
70806;SDS011;58882;52.170;5.386;2023-05-16T11:36:08;5.30;;;0.90;;
70806;SDS011;58882;52.170;5.386;2023-05-16T11:39:05;4.70;;;0.85;;
70806;SDS011;58882;52.170;5.386;2023-05-16T11:41:48;5.93;;;1.20;;
70806;SDS011;58882;52.170;5.386;2023-05-16T11:44:35;4.22;;;0.80;;
70806;SDS011;58882;52.170;5.386;2023-05-16T11:47:15;4.75;;;0.90;;
70806;SDS011;58882;52.170;5.386;2023-05-16T11:50:12;4.18;;;0.90;;
70806;SDS011;58882;52.170;5.386;2023-05-16T11:52:54;4.93;;;0.80;;
70806;SDS011;58882;52.170;5.386;2023-05-16T11:55:48;2.33;;;0.70;;
70806;SDS011;58882;52.170;5.386;2023-05-16T11:58:28;4.03;;;0.93;;
70806;SDS011;58882;52.170;5.386;2023-05-16T12:01:23;4.32;;;0.82;;
70806;SDS011;58882;52.170;5.386;2023-05-16T12:03:56;4.00;;;0.80;;
70806;SDS011;58882;52.170;5.386;2023-05-16T12:06:56;6.32;;;1.20;;
70806;SDS011;58882;52.170;5.386;2023-05-16T12:09:38;5.07;;;0.73;;
70806;SDS011;58882;52.170;5.386;2023-05-16T12:12:25;4.90;;;1.20;;
70806;SDS011;58882;52.170;5.386;2023-05-16T12:15:00;5.72;;;0.90;;
70806;SDS011;58882;52.170;5.386;2023-05-16T12:17:58;5.82;;;1.20;;
70806;SDS011;58882;52.170;5.386;2023-05-16T12:20:38;4.38;;;0.80;;
70806;SDS011;58882;52.170;5.386;2023-05-16T12:23:26;4.60;;;0.88;;
70806;SDS011;58882;52.170;5.386;2023-05-16T12:26:06;6.30;;;1.05;;
70806;SDS011;58882;52.170;5.386;2023-05-16T12:28:54;5.43;;;1.00;;
70806;SDS011;58882;52.170;5.386;2023-05-16T12:31:38;7.18;;;1.20;;
70806;SDS011;58882;52.170;5.386;2023-05-16T12:34:33;4.15;;;0.85;;
70806;SDS011;58882;52.170;5.386;2023-05-16T12:37:06;25.02;;;1.83;;
70806;SDS011;58882;52.170;5.386;2023-05-16T12:40:00;10.25;;;1.10;;
70806;SDS011;58882;52.170;5.386;2023-05-16T12:42:34;4.07;;;0.80;;
70806;SDS011;58882;52.170;5.386;2023-05-16T12:45:28;4.57;;;1.00;;
70806;SDS011;58882;52.170;5.386;2023-05-16T12:48:04;7.18;;;1.10;;
70806;SDS011;58882;52.170;5.386;2023-05-16T12:51:12;7.38;;;1.17;;
70806;SDS011;58882;52.170;5.386;2023-05-16T12:54:07;6.70;;;1.10;;
70806;SDS011;58882;52.170;5.386;2023-05-16T12:56:50;7.35;;;1.33;;
70806;SDS011;58882;52.170;5.386;2023-05-16T12:59:44;8.63;;;1.40;;
70806;SDS011;58882;52.170;5.386;2023-05-16T13:02:24;2.95;;;0.88;;
70806;SDS011;58882;52.170;5.386;2023-05-16T13:05:11;6.85;;;1.13;;
70806;SDS011;58882;52.170;5.386;2023-05-16T13:07:51;6.85;;;1.48;;
70806;SDS011;58882;52.170;5.386;2023-05-16T13:10:38;8.73;;;1.23;;
70806;SDS011;58882;52.170;5.386;2023-05-16T13:13:18;7.78;;;1.20;;
70806;SDS011;58882;52.170;5.386;2023-05-16T13:16:15;6.75;;;1.00;;
70806;SDS011;58882;52.170;5.386;2023-05-16T13:18:56;6.40;;;1.10;;
70806;SDS011;58882;52.170;5.386;2023-05-16T13:21:44;6.22;;;1.17;;
70806;SDS011;58882;52.170;5.386;2023-05-16T13:24:24;7.88;;;1.30;;
70806;SDS011;58882;52.170;5.386;2023-05-16T13:27:18;5.68;;;0.98;;
70806;SDS011;58882;52.170;5.386;2023-05-16T13:29:51;4.82;;;1.00;;
70806;SDS011;58882;52.170;5.386;2023-05-16T13:32:45;7.80;;;1.23;;
70806;SDS011;58882;52.170;5.386;2023-05-16T13:35:25;5.07;;;1.10;;
70806;SDS011;58882;52.170;5.386;2023-05-16T13:38:12;3.92;;;0.90;;
70806;SDS011;58882;52.170;5.386;2023-05-16T13:40:45;10.07;;;1.08;;
70806;SDS011;58882;52.170;5.386;2023-05-16T13:43:39;9.38;;;1.40;;
70806;SDS011;58882;52.170;5.386;2023-05-16T13:46:12;3.95;;;1.00;;
70806;SDS011;58882;52.170;5.386;2023-05-16T13:49:06;5.93;;;1.30;;
70806;SDS011;58882;52.170;5.386;2023-05-16T13:51:39;4.10;;;1.00;;
70806;SDS011;58882;52.170;5.386;2023-05-16T13:54:33;6.65;;;1.02;;
70806;SDS011;58882;52.170;5.386;2023-05-16T13:57:13;5.60;;;1.40;;
70806;SDS011;58882;52.170;5.386;2023-05-16T14:00:00;4.65;;;1.15;;
70806;SDS011;58882;52.170;5.386;2023-05-16T14:02:43;6.35;;;1.42;;
70806;SDS011;58882;52.170;5.386;2023-05-16T14:05:37;6.00;;;1.05;;
70806;SDS011;58882;52.170;5.386;2023-05-16T14:08:17;4.65;;;1.25;;
70806;SDS011;58882;52.170;5.386;2023-05-16T14:11:04;3.88;;;1.05;;
70806;SDS011;58882;52.170;5.386;2023-05-16T14:13:37;5.82;;;1.00;;
70806;SDS011;58882;52.170;5.386;2023-05-16T14:16:31;6.43;;;1.17;;
70806;SDS011;58882;52.170;5.386;2023-05-16T14:19:15;5.88;;;1.00;;
70806;SDS011;58882;52.170;5.386;2023-05-16T14:22:02;6.47;;;1.05;;
70806;SDS011;58882;52.170;5.386;2023-05-16T14:24:42;3.63;;;0.93;;
70806;SDS011;58882;52.170;5.386;2023-05-16T14:27:29;4.97;;;1.00;;
70806;SDS011;58882;52.170;5.386;2023-05-16T14:30:09;7.05;;;1.08;;
70806;SDS011;58882;52.170;5.386;2023-05-16T14:33:04;5.75;;;0.90;;
70806;SDS011;58882;52.170;5.386;2023-05-16T14:35:38;5.85;;;0.88;;
70806;SDS011;58882;52.170;5.386;2023-05-16T14:38:35;5.10;;;1.35;;
70806;SDS011;58882;52.170;5.386;2023-05-16T14:41:15;9.38;;;1.30;;
70806;SDS011;58882;52.170;5.386;2023-05-16T14:44:02;9.00;;;1.20;;
70806;SDS011;58882;52.170;5.386;2023-05-16T14:46:35;5.85;;;1.00;;
70806;SDS011;58882;52.170;5.386;2023-05-16T14:49:29;5.32;;;1.00;;
70806;SDS011;58882;52.170;5.386;2023-05-16T14:52:16;7.63;;;1.20;;
70806;SDS011;58882;52.170;5.386;2023-05-16T14:55:10;5.88;;;0.90;;
70806;SDS011;58882;52.170;5.386;2023-05-16T14:57:43;7.75;;;1.00;;
70806;SDS011;58882;52.170;5.386;2023-05-16T15:00:39;6.13;;;1.20;;
70806;SDS011;58882;52.170;5.386;2023-05-16T15:03:12;3.38;;;0.90;;
70806;SDS011;58882;52.170;5.386;2023-05-16T15:06:06;2.92;;;0.90;;
70806;SDS011;58882;52.170;5.386;2023-05-16T15:08:39;5.40;;;0.90;;
70806;SDS011;58882;52.170;5.386;2023-05-16T15:11:33;5.45;;;0.90;;
70806;SDS011;58882;52.170;5.386;2023-05-16T15:14:06;4.15;;;0.95;;
70806;SDS011;58882;52.170;5.386;2023-05-16T15:17:00;2.97;;;0.70;;
70806;SDS011;58882;52.170;5.386;2023-05-16T15:19:41;5.15;;;1.10;;
70806;SDS011;58882;52.170;5.386;2023-05-16T15:22:28;5.25;;;1.00;;
70806;SDS011;58882;52.170;5.386;2023-05-16T15:25:02;3.75;;;1.00;;
70806;SDS011;58882;52.170;5.386;2023-05-16T15:27:56;5.03;;;0.90;;
70806;SDS011;58882;52.170;5.386;2023-05-16T15:30:36;3.83;;;0.93;;
70806;SDS011;58882;52.170;5.386;2023-05-16T15:33:23;3.28;;;0.90;;
70806;SDS011;58882;52.170;5.386;2023-05-16T15:35:56;2.47;;;0.82;;
70806;SDS011;58882;52.170;5.386;2023-05-16T15:38:50;5.35;;;0.80;;
70806;SDS011;58882;52.170;5.386;2023-05-16T15:41:24;4.35;;;0.93;;
70806;SDS011;58882;52.170;5.386;2023-05-16T15:44:38;7.43;;;1.40;;
70806;SDS011;58882;52.170;5.386;2023-05-16T15:47:12;4.00;;;0.95;;
70806;SDS011;58882;52.170;5.386;2023-05-16T15:50:06;6.28;;;1.13;;
70806;SDS011;58882;52.170;5.386;2023-05-16T15:52:40;4.15;;;1.10;;
70806;SDS011;58882;52.170;5.386;2023-05-16T15:55:34;3.58;;;1.00;;
70806;SDS011;58882;52.170;5.386;2023-05-16T15:58:07;5.55;;;1.20;;
70806;SDS011;58882;52.170;5.386;2023-05-16T16:01:01;4.47;;;1.20;;
70806;SDS011;58882;52.170;5.386;2023-05-16T16:03:34;6.18;;;1.00;;
70806;SDS011;58882;52.170;5.386;2023-05-16T16:06:28;5.45;;;1.20;;
70806;SDS011;58882;52.170;5.386;2023-05-16T16:09:08;8.02;;;1.20;;
70806;SDS011;58882;52.170;5.386;2023-05-16T16:11:55;3.78;;;1.23;;
70806;SDS011;58882;52.170;5.386;2023-05-16T16:14:35;6.25;;;1.42;;
70806;SDS011;58882;52.170;5.386;2023-05-16T16:17:15;5.78;;;1.25;;
70806;SDS011;58882;52.170;5.386;2023-05-16T16:20:09;4.03;;;1.17;;
70806;SDS011;58882;52.170;5.386;2023-05-16T16:22:49;5.95;;;1.20;;
70806;SDS011;58882;52.170;5.386;2023-05-16T16:25:43;6.43;;;1.23;;
70806;SDS011;58882;52.170;5.386;2023-05-16T16:28:23;4.60;;;1.13;;
70806;SDS011;58882;52.170;5.386;2023-05-16T16:31:10;3.72;;;1.27;;
70806;SDS011;58882;52.170;5.386;2023-05-16T16:33:51;6.53;;;1.20;;
70806;SDS011;58882;52.170;5.386;2023-05-16T16:36:38;3.25;;;1.10;;
70806;SDS011;58882;52.170;5.386;2023-05-16T16:39:33;6.50;;;1.30;;
70806;SDS011;58882;52.170;5.386;2023-05-16T16:42:27;4.05;;;1.15;;
70806;SDS011;58882;52.170;5.386;2023-05-16T16:45:09;5.45;;;1.23;;
70806;SDS011;58882;52.170;5.386;2023-05-16T16:47:56;8.68;;;1.70;;
70806;SDS011;58882;52.170;5.386;2023-05-16T16:50:39;8.73;;;1.48;;
70806;SDS011;58882;52.170;5.386;2023-05-16T16:53:26;4.13;;;1.30;;
70806;SDS011;58882;52.170;5.386;2023-05-16T16:56:06;6.20;;;1.50;;
70806;SDS011;58882;52.170;5.386;2023-05-16T16:58:53;6.65;;;1.52;;
70806;SDS011;58882;52.170;5.386;2023-05-16T17:01:33;4.47;;;1.38;;
70806;SDS011;58882;52.170;5.386;2023-05-16T17:04:20;5.22;;;1.50;;
70806;SDS011;58882;52.170;5.386;2023-05-16T17:07:00;7.07;;;1.70;;
70806;SDS011;58882;52.170;5.386;2023-05-16T17:09:47;6.68;;;1.30;;
70806;SDS011;58882;52.170;5.386;2023-05-16T17:12:27;8.27;;;1.73;;
70806;SDS011;58882;52.170;5.386;2023-05-16T17:15:17;5.93;;;1.55;;
70806;SDS011;58882;52.170;5.386;2023-05-16T17:17:57;5.13;;;1.50;;
70806;SDS011;58882;52.170;5.386;2023-05-16T17:20:47;7.22;;;1.70;;
70806;SDS011;58882;52.170;5.386;2023-05-16T17:23:27;3.05;;;1.50;;
70806;SDS011;58882;52.170;5.386;2023-05-16T17:26:14;6.03;;;1.80;;
70806;SDS011;58882;52.170;5.386;2023-05-16T17:28:55;8.82;;;1.80;;
70806;SDS011;58882;52.170;5.386;2023-05-16T17:31:44;7.82;;;2.40;;
70806;SDS011;58882;52.170;5.386;2023-05-16T17:34:24;6.13;;;1.73;;
70806;SDS011;58882;52.170;5.386;2023-05-16T17:37:18;5.40;;;1.63;;
70806;SDS011;58882;52.170;5.386;2023-05-16T17:39:58;6.18;;;2.00;;
70806;SDS011;58882;52.170;5.386;2023-05-16T17:42:52;6.35;;;1.55;;
70806;SDS011;58882;52.170;5.386;2023-05-16T17:45:25;10.23;;;1.70;;
70806;SDS011;58882;52.170;5.386;2023-05-16T17:48:19;5.28;;;1.60;;
70806;SDS011;58882;52.170;5.386;2023-05-16T17:50:52;6.72;;;1.60;;
70806;SDS011;58882;52.170;5.386;2023-05-16T17:53:47;6.35;;;1.60;;
70806;SDS011;58882;52.170;5.386;2023-05-16T17:56:22;5.82;;;1.60;;
70806;SDS011;58882;52.170;5.386;2023-05-16T17:59:16;6.65;;;1.83;;
70806;SDS011;58882;52.170;5.386;2023-05-16T18:01:56;6.07;;;1.48;;
70806;SDS011;58882;52.170;5.386;2023-05-16T18:04:43;6.40;;;1.55;;
70806;SDS011;58882;52.170;5.386;2023-05-16T18:07:23;6.30;;;1.40;;
70806;SDS011;58882;52.170;5.386;2023-05-16T18:10:11;8.18;;;1.38;;
70806;SDS011;58882;52.170;5.386;2023-05-16T18:12:52;8.13;;;1.35;;
70806;SDS011;58882;52.170;5.386;2023-05-16T18:15:39;4.82;;;1.27;;
70806;SDS011;58882;52.170;5.386;2023-05-16T18:18:19;6.85;;;1.38;;
70806;SDS011;58882;52.170;5.386;2023-05-16T18:21:13;6.75;;;1.45;;
70806;SDS011;58882;52.170;5.386;2023-05-16T18:23:53;5.47;;;1.20;;
70806;SDS011;58882;52.170;5.386;2023-05-16T18:26:40;8.80;;;1.52;;
70806;SDS011;58882;52.170;5.386;2023-05-16T18:29:20;6.95;;;1.67;;
70806;SDS011;58882;52.170;5.386;2023-05-16T18:32:07;7.60;;;1.52;;
70806;SDS011;58882;52.170;5.386;2023-05-16T18:34:48;4.82;;;1.30;;
70806;SDS011;58882;52.170;5.386;2023-05-16T18:37:35;7.25;;;1.17;;
70806;SDS011;58882;52.170;5.386;2023-05-16T18:40:16;6.13;;;1.30;;
70806;SDS011;58882;52.170;5.386;2023-05-16T18:43:11;8.52;;;1.50;;
70806;SDS011;58882;52.170;5.386;2023-05-16T18:45:52;8.25;;;1.45;;
70806;SDS011;58882;52.170;5.386;2023-05-16T18:48:39;8.07;;;1.50;;